createdAt,value
2018-04-26T00:00:40.233Z,98.23
2018-04-26T00:01:40.230Z,99.28
2018-04-26T00:02:40.212Z,99.66
2018-04-26T00:03:39.965Z,99.28
2018-04-26T00:04:40.216Z,98.42
2018-04-26T00:05:40.233Z,97.18
2018-04-26T00:06:40.238Z,98.61
2018-04-26T00:07:39.959Z,95.56
2018-04-26T00:08:40.202Z,93.84
2018-04-26T00:09:40.200Z,94.31
2018-04-26T00:10:40.204Z,96.13
2018-04-26T00:11:40.198Z,96.7
2018-04-26T00:12:40.218Z,98.13
2018-04-26T00:13:39.946Z,95.98
2018-04-26T00:14:40.194Z,96.32
2018-04-26T00:15:39.956Z,96.42
2018-04-26T00:16:39.945Z,96.89
2018-04-26T00:17:40.190Z,97.18
2018-04-26T00:18:39.938Z,96.8
2018-04-26T00:19:40.189Z,98.71
2018-04-26T00:20:40.189Z,97.42
2018-04-26T00:21:40.188Z,95.89
2018-04-26T00:22:40.184Z,96.46
2018-04-26T00:23:40.188Z,97.13
2018-04-26T00:24:40.186Z,95.41
2018-04-26T00:25:40.178Z,95.7
2018-04-26T00:26:40.181Z,95.89
2018-04-26T00:27:40.185Z,94.46
2018-04-26T00:28:39.918Z,93.84
2018-04-26T00:29:40.184Z,93.65
2018-04-26T00:30:40.172Z,93.07
2018-04-26T00:31:40.189Z,92.31
2018-04-26T00:32:40.168Z,93.07
2018-04-26T00:33:40.169Z,93.84
2018-04-26T00:34:39.911Z,93.17
2018-04-26T00:35:40.167Z,92.97
2018-04-26T00:36:40.154Z,92.12
2018-04-26T00:37:40.152Z,91.83
2018-04-26T00:38:40.150Z,92.97
2018-04-26T00:39:39.901Z,94.6
2018-04-26T00:40:39.906Z,92.12
2018-04-26T00:41:40.143Z,92.21
2018-04-26T00:42:40.141Z,91.93
2018-04-26T00:43:40.141Z,92.02
2018-04-26T00:44:40.140Z,92.12
2018-04-26T00:45:40.147Z,92.02
2018-04-26T00:46:42.240Z,90.69
2018-04-26T00:47:40.150Z,89.25
2018-04-26T00:48:39.885Z,89.73
2018-04-26T00:49:39.885Z,90.88
2018-04-26T00:50:40.136Z,90.97
2018-04-26T00:51:39.897Z,90.97
2018-04-26T00:52:40.126Z,89.45
2018-04-26T00:53:40.125Z,89.92
2018-04-26T00:54:40.126Z,89.73
2018-04-26T00:55:40.120Z,90.97
2018-04-26T00:56:39.868Z,90.69
2018-04-26T00:57:40.114Z,89.35
2018-04-26T00:58:40.122Z,89.35
2018-04-26T00:59:40.113Z,90.31
2018-04-26T01:00:39.864Z,90.02
2018-04-26T01:01:40.317Z,89.45
2018-04-26T01:02:40.135Z,89.35
2018-04-26T01:03:39.853Z,89.92
2018-04-26T01:04:40.107Z,88.01
2018-04-26T01:05:40.106Z,87.35
2018-04-26T01:06:40.114Z,86.96
2018-04-26T01:07:40.093Z,87.54
2018-04-26T01:08:40.098Z,86.96
2018-04-26T01:09:40.093Z,87.54
2018-04-26T01:10:39.841Z,86.49
2018-04-26T01:11:40.086Z,86.39
2018-04-26T01:12:40.090Z,86.3
2018-04-26T01:13:39.837Z,87.44
2018-04-26T01:14:39.840Z,86.87
2018-04-26T01:15:40.084Z,86.96
2018-04-26T01:16:40.089Z,86.49
2018-04-26T01:17:40.075Z,86.49
2018-04-26T01:18:40.074Z,85.44
2018-04-26T01:19:39.841Z,85.91
2018-04-26T01:20:40.070Z,86.2
2018-04-26T01:21:40.074Z,86.49
2018-04-26T01:22:40.084Z,87.15
2018-04-26T01:23:40.065Z,86.1
2018-04-26T01:24:40.087Z,86.49
2018-04-26T01:25:40.069Z,86.2
2018-04-26T01:26:40.078Z,86.49
2018-04-26T01:27:40.058Z,87.25
2018-04-26T01:28:40.056Z,85.72
2018-04-26T01:29:40.071Z,85.15
2018-04-26T01:30:40.058Z,84.77
2018-04-26T01:31:39.798Z,84.29
2018-04-26T01:32:40.049Z,83.91
2018-04-26T01:33:40.046Z,84.39
2018-04-26T01:34:40.051Z,85.25
2018-04-26T01:35:40.148Z,84.86
2018-04-26T01:36:40.064Z,83.05
2018-04-26T01:37:40.037Z,83.34
2018-04-26T01:38:40.036Z,85.05
2018-04-26T01:39:39.781Z,84.77
2018-04-26T01:40:40.031Z,87.25
2018-04-26T01:41:40.035Z,86.49
2018-04-26T01:42:40.033Z,85.44
2018-04-26T01:43:40.033Z,85.72
2018-04-26T01:44:40.025Z,85.44
2018-04-26T01:45:40.024Z,85.82
2018-04-26T01:46:40.025Z,85.63
2018-04-26T01:47:40.021Z,86.96
2018-04-26T01:48:40.014Z,87.44
2018-04-26T01:49:39.773Z,87.54
2018-04-26T01:50:39.770Z,87.44
2018-04-26T01:51:39.762Z,88.4
2018-04-26T01:52:39.759Z,88.68
2018-04-26T01:53:40.012Z,86.49
2018-04-26T01:54:40.006Z,88.2
2018-04-26T01:55:40.006Z,90.11
2018-04-26T01:56:40.007Z,89.64
2018-04-26T01:57:40.009Z,89.16
2018-04-26T01:58:39.996Z,87.54
2018-04-26T01:59:40.003Z,86.96
2018-04-26T02:00:40.006Z,87.87
2018-04-26T02:01:39.792Z,89.12
2018-04-26T02:02:39.741Z,89.06
2018-04-26T02:03:40.003Z,89.64
2018-04-26T02:04:39.737Z,89.78
2018-04-26T02:05:39.737Z,90.26
2018-04-26T02:06:39.985Z,91.78
2018-04-26T02:07:39.981Z,91.78
2018-04-26T02:08:39.977Z,91.88
2018-04-26T02:09:39.978Z,91.69
2018-04-26T02:10:39.973Z,91.88
2018-04-26T02:11:39.980Z,93.22
2018-04-26T02:12:40.043Z,93.02
2018-04-26T02:13:39.967Z,93.88
2018-04-26T02:14:39.976Z,95.12
2018-04-26T02:15:39.965Z,94.17
2018-04-26T02:16:39.961Z,94.56
2018-04-26T02:17:43.661Z,97.03
2018-04-26T02:18:39.958Z,96.84
2018-04-26T02:19:39.953Z,96.94
2018-04-26T02:20:39.702Z,97.61
2018-04-26T02:21:39.956Z,96.94
2018-04-26T02:22:39.949Z,96.84
2018-04-26T02:23:39.946Z,95.22
2018-04-26T02:24:39.942Z,92.07
2018-04-26T02:25:39.947Z,92.07
2018-04-26T02:26:39.692Z,91.69
2018-04-26T02:27:39.940Z,91.21
2018-04-26T02:28:39.937Z,91.69
2018-04-26T02:29:39.939Z,91.88
2018-04-26T02:30:39.709Z,92.69
2018-04-26T02:31:39.937Z,93.36
2018-04-26T02:32:39.935Z,93.41
2018-04-26T02:33:39.932Z,92.93
2018-04-26T02:34:39.936Z,94.46
2018-04-26T02:35:39.937Z,93.41
2018-04-26T02:36:39.939Z,93.22
2018-04-26T02:37:39.915Z,94.36
2018-04-26T02:38:39.920Z,95.61
2018-04-26T02:39:39.920Z,95.98
2018-04-26T02:40:39.912Z,96.46
2018-04-26T02:41:39.920Z,95.41
2018-04-26T02:42:39.905Z,95.03
2018-04-26T02:43:39.679Z,95.61
2018-04-26T02:44:39.901Z,96.17
2018-04-26T02:45:39.952Z,96.8
2018-04-26T02:46:39.896Z,98.37
2018-04-26T02:47:39.940Z,98.8
2018-04-26T02:48:39.901Z,99.23
2018-04-26T02:49:39.893Z,99.99
2018-04-26T02:50:39.658Z,99.99
2018-04-26T02:51:39.889Z,99.99
2018-04-26T02:52:39.888Z,98.85
2018-04-26T02:53:39.886Z,99.32
2018-04-26T02:54:39.885Z,97.8
2018-04-26T02:55:39.888Z,97.99
2018-04-26T02:56:39.872Z,98.85
2018-04-26T02:57:39.619Z,97.61
2018-04-26T02:58:39.870Z,97.22
2018-04-26T02:59:39.615Z,98.03
2018-04-26T03:00:39.865Z,99.61
2018-04-26T03:01:39.858Z,99.75
2018-04-26T03:02:39.863Z,98.99
2018-04-26T03:03:39.869Z,98.47
2018-04-26T03:04:39.852Z,97.08
2018-04-26T03:05:39.855Z,95.61
2018-04-26T03:06:39.601Z,95.61
2018-04-26T03:07:39.847Z,97.22
2018-04-26T03:08:39.594Z,98.03
2018-04-26T03:09:39.844Z,97.8
2018-04-26T03:10:39.844Z,97.22
2018-04-26T03:11:39.586Z,96.84
2018-04-26T03:12:39.602Z,95.32
2018-04-26T03:13:39.586Z,92.65
2018-04-26T03:14:39.828Z,91.41
2018-04-26T03:15:39.828Z,91.12
2018-04-26T03:16:39.832Z,92.36
2018-04-26T03:17:39.570Z,94.27
2018-04-26T03:18:39.819Z,95.12
2018-04-26T03:19:39.814Z,95.41
2018-04-26T03:20:39.817Z,95.98
2018-04-26T03:21:39.816Z,95.32
2018-04-26T03:22:39.812Z,95.03
2018-04-26T03:23:39.811Z,93.51
2018-04-26T03:24:39.555Z,93.41
2018-04-26T03:25:39.799Z,92.74
2018-04-26T03:26:39.799Z,94.36
2018-04-26T03:27:39.796Z,94.07
2018-04-26T03:28:39.795Z,94.17
2018-04-26T03:29:39.807Z,93.88
2018-04-26T03:37:49.272Z,96.13
2018-04-26T03:38:49.273Z,96.84
2018-04-26T03:39:49.265Z,97.71
2018-04-26T03:40:49.264Z,95.89
2018-04-26T03:41:49.264Z,95.61
2018-04-26T03:42:49.020Z,97.56
2018-04-26T03:43:49.257Z,96.84
2018-04-26T03:44:49.304Z,97.61
2018-04-26T03:45:49.256Z,95.98
2018-04-26T03:46:49.249Z,95.98
2018-04-26T03:47:49.247Z,96.94
2018-04-26T03:48:49.246Z,97.22
2018-04-26T03:49:49.240Z,97.51
2018-04-26T03:50:49.272Z,97.89
2018-04-26T03:51:49.240Z,98.22
2018-04-26T03:52:55.048Z,99.13
2018-04-26T03:53:48.984Z,99.71
2018-04-26T03:54:49.228Z,99.99
2018-04-26T03:55:49.230Z,99.42
2018-04-26T03:56:49.222Z,99.32
2018-04-26T03:57:49.226Z,99.85
2018-04-26T03:58:49.223Z,99.99
2018-04-26T03:59:49.301Z,99.99
2018-04-26T04:00:49.212Z,99.99
2018-04-26T04:01:49.217Z,99.99
2018-04-26T04:02:49.209Z,99.99
2018-04-26T04:03:48.958Z,99.99
2018-04-26T04:04:49.218Z,99.99
2018-04-26T04:05:49.211Z,99.99
2018-04-26T04:06:48.954Z,99.99
2018-04-26T04:07:48.944Z,99.99
2018-04-26T04:08:49.196Z,99.99
2018-04-26T04:09:49.193Z,99.99
2018-04-26T04:10:48.938Z,99.99
2018-04-26T04:11:49.185Z,99.99
2018-04-26T04:12:49.185Z,99.99
2018-04-26T04:13:48.958Z,99.99
2018-04-26T04:14:49.181Z,99.99
2018-04-26T04:15:49.173Z,99.99
2018-04-26T04:16:49.172Z,99.99
2018-04-26T04:17:49.195Z,99.99
2018-04-26T04:18:49.170Z,99.99
2018-04-26T04:19:49.169Z,99.99
2018-04-26T04:20:49.162Z,99.99
2018-04-26T04:21:49.155Z,99.99
2018-04-26T04:22:49.159Z,99.99
2018-04-26T04:23:49.157Z,99.99
2018-04-26T04:24:49.158Z,99.99
2018-04-26T04:25:49.153Z,99.99
2018-04-26T04:26:49.149Z,99.99
2018-04-26T04:27:49.146Z,99.99
2018-04-26T04:28:48.894Z,98.99
2018-04-26T04:29:49.144Z,99.56
2018-04-26T04:30:49.135Z,99.27
2018-04-26T04:31:49.141Z,99.23
2018-04-26T04:32:49.177Z,98.75
2018-04-26T04:33:48.881Z,98.94
2018-04-26T04:34:49.140Z,99.42
2018-04-26T04:35:49.126Z,97.51
2018-04-26T04:36:49.125Z,96.75
2018-04-26T04:37:49.117Z,96.94
2018-04-26T04:38:49.130Z,96.13
2018-04-26T04:39:49.185Z,95.98
2018-04-26T04:40:49.132Z,96.08
2018-04-26T04:41:48.858Z,97.32
2018-04-26T04:42:49.102Z,96.66
2018-04-26T04:43:48.854Z,96.08
2018-04-26T04:44:49.102Z,95.41
2018-04-26T04:45:49.147Z,93.88
2018-04-26T04:46:49.103Z,92.65
2018-04-26T04:47:49.097Z,92.93
2018-04-26T04:48:49.094Z,94.51
2018-04-26T04:49:48.840Z,93.7
2018-04-26T04:50:49.094Z,92.93
2018-04-26T04:51:49.086Z,93.51
2018-04-26T04:52:48.839Z,94.93
2018-04-26T04:53:49.087Z,93.7
2018-04-26T04:54:48.832Z,92.36
2018-04-26T04:55:48.837Z,92.93
2018-04-26T04:56:49.083Z,91.6
2018-04-26T04:57:49.077Z,91.69
2018-04-26T04:58:48.831Z,92.46
2018-04-26T04:59:49.066Z,90.73
2018-04-26T05:00:49.063Z,91.69
2018-04-26T05:01:49.060Z,92.17
2018-04-26T05:02:49.056Z,90.73
2018-04-26T05:03:49.058Z,89.93
2018-04-26T05:04:49.052Z,89.36
2018-04-26T05:05:49.050Z,88.31
2018-04-26T05:06:49.055Z,89.88
2018-04-26T05:07:49.047Z,90.26
2018-04-26T05:08:49.044Z,87.3
2018-04-26T05:09:49.065Z,86.49
2018-04-26T05:10:49.051Z,86.82
2018-04-26T05:11:49.044Z,87.49
2018-04-26T05:12:49.038Z,87.02
2018-04-26T05:13:49.114Z,87.3
2018-04-26T05:14:49.037Z,87.3
2018-04-26T05:15:49.035Z,87.87
2018-04-26T05:16:49.026Z,87.59
2018-04-26T05:17:48.776Z,87.21
2018-04-26T05:18:48.795Z,87.78
2018-04-26T05:19:49.126Z,87.78
2018-04-26T05:20:49.017Z,86.92
2018-04-26T05:21:49.016Z,86.73
2018-04-26T05:22:49.020Z,86.92
2018-04-26T05:23:52.364Z,88.16
2018-04-26T05:24:49.020Z,88.26
2018-04-26T05:25:49.201Z,87.78
2018-04-26T05:26:49.019Z,88.12
2018-04-26T05:27:49.005Z,87.97
2018-04-26T05:28:49.000Z,89.31
2018-04-26T05:29:48.749Z,89.59
2018-04-26T05:30:49.020Z,90.83
2018-04-26T05:31:48.750Z,91.98
2018-04-26T05:32:48.997Z,92.07
2018-04-26T05:33:48.746Z,91.98
2018-04-26T05:34:48.985Z,91.78
2018-04-26T05:35:48.989Z,91.69
2018-04-26T05:36:48.986Z,92.12
2018-04-26T05:37:48.985Z,91.26
2018-04-26T05:38:48.978Z,90.31
2018-04-26T05:39:48.976Z,89.35
2018-04-26T05:40:48.971Z,89.73
2018-04-26T05:41:48.973Z,89.78
2018-04-26T05:42:48.969Z,89.68
2018-04-26T05:43:48.983Z,88.25
2018-04-26T05:44:48.969Z,87.62
2018-04-26T05:45:48.970Z,86.29
2018-04-26T05:46:48.970Z,85.24
2018-04-26T05:47:48.714Z,87.62
2018-04-26T05:48:48.971Z,82.79
2018-04-26T05:49:48.713Z,80.5
2018-04-26T05:50:48.971Z,78.11
2018-04-26T05:51:48.957Z,77.92
2018-04-26T05:52:48.967Z,77.44
2018-04-26T05:53:48.959Z,77.5
2018-04-26T05:54:48.961Z,77.11
2018-04-26T05:55:48.819Z,77.97
2018-04-26T05:56:48.964Z,78.36
2018-04-26T05:57:48.960Z,78.83
2018-04-26T05:58:48.703Z,80.36
2018-04-26T05:59:48.953Z,80.36
2018-04-26T06:00:48.954Z,79.41
2018-04-26T06:01:48.958Z,79.31
2018-04-26T06:02:48.955Z,77.5
2018-04-26T06:03:49.044Z,76.67
2018-04-26T06:04:48.947Z,74.38
2018-04-26T06:05:48.954Z,72.79
2018-04-26T06:06:48.949Z,72.88
2018-04-26T06:07:48.951Z,72.88
2018-04-26T06:08:48.948Z,74.13
2018-04-26T06:09:48.946Z,74.41
2018-04-26T06:10:48.698Z,75.62
2018-04-26T06:11:48.942Z,73.9
2018-04-26T06:12:48.694Z,74.57
2018-04-26T06:22:06.655Z,66.77
2018-04-26T06:23:06.653Z,65.36
2018-04-26T06:24:06.649Z,63.38
2018-04-26T06:25:06.724Z,59.7
2018-04-26T06:26:06.644Z,57.23
2018-04-26T06:27:07.505Z,55.37
2018-04-26T06:28:06.666Z,52.99
2018-04-26T06:29:06.649Z,50.73
2018-04-26T06:30:06.404Z,48.93
2018-04-26T06:31:06.761Z,44.93
2018-04-26T06:32:06.659Z,44.95
2018-04-26T06:33:06.657Z,43.72
2018-04-26T06:34:06.670Z,41.33
2018-04-26T06:35:06.668Z,42.1
2018-04-26T06:36:06.668Z,40.75
2018-04-26T06:37:06.676Z,40.75
2018-04-26T06:38:06.681Z,41.11
2018-04-26T06:39:06.692Z,43.02
2018-04-26T06:40:06.690Z,44.32
2018-04-26T06:41:06.692Z,46.67
2018-04-26T06:42:06.697Z,48.54
2018-04-26T06:43:06.705Z,50.82
2018-04-26T06:44:06.709Z,53.08
2018-04-26T06:45:06.460Z,55.55
2018-04-26T06:46:06.715Z,56.29
2018-04-26T06:47:06.718Z,56.83
2018-04-26T06:48:06.719Z,58.72
2018-04-26T06:49:06.721Z,60.13
2018-04-26T06:50:06.477Z,61.63
2018-04-26T06:51:06.740Z,62.01
2018-04-26T06:52:06.743Z,61.54
2018-04-26T06:53:06.735Z,62.08
2018-04-26T06:54:06.736Z,63.13
2018-04-26T06:55:06.740Z,64.09
2018-04-26T06:56:06.488Z,64.37
2018-04-26T06:57:10.843Z,64.82
2018-04-26T06:58:06.759Z,66.16
2018-04-26T06:59:06.492Z,65.77
2018-04-26T07:00:06.774Z,65.77
2018-04-26T07:01:06.744Z,66.44
2018-04-26T07:02:06.755Z,67.11
2018-04-26T07:03:06.495Z,68.16
2018-04-26T07:04:06.746Z,68.74
2018-04-26T07:05:06.749Z,68.35
2018-04-26T07:06:06.748Z,67.78
2018-04-26T07:07:06.753Z,67.69
2018-04-26T07:08:06.746Z,68.16
2018-04-26T07:09:06.747Z,68.55
2018-04-26T07:10:06.748Z,69.18
2018-04-26T07:11:06.748Z,68.9
2018-04-26T07:12:06.609Z,68.41
2018-04-26T07:13:06.747Z,69.95
2018-04-26T07:14:06.747Z,69.27
2018-04-26T07:15:06.751Z,68.9
2018-04-26T07:16:06.744Z,68.23
2018-04-26T07:17:06.532Z,66.99
2018-04-26T07:18:07.150Z,67.94
2018-04-26T07:19:06.748Z,68.1
2018-04-26T07:20:06.747Z,68.29
2018-04-26T07:21:06.750Z,68.38
2018-04-26T07:22:06.744Z,67.24
2018-04-26T07:23:06.744Z,67.71
2018-04-26T07:24:06.492Z,67.91
2018-04-26T07:25:06.741Z,68.54
2018-04-26T07:26:06.748Z,68.82
2018-04-26T07:27:06.735Z,69.11
2018-04-26T07:28:07.786Z,69.78
2018-04-26T07:29:06.733Z,69.49
2018-04-26T07:30:06.750Z,68.35
2018-04-26T07:31:06.732Z,67.68
2018-04-26T07:32:06.485Z,67.97
2018-04-26T07:33:06.480Z,67.97
2018-04-26T07:34:06.729Z,68.35
2018-04-26T07:35:06.482Z,68.35
2018-04-26T07:36:06.476Z,67.97
2018-04-26T07:37:06.724Z,68.44
2018-04-26T07:38:06.723Z,68.54
2018-04-26T07:39:06.726Z,69.02
2018-04-26T07:40:06.724Z,68.16
2018-04-26T07:41:06.761Z,68.26
2018-04-26T07:42:06.471Z,68.35
2018-04-26T07:43:06.721Z,68.73
2018-04-26T07:44:06.712Z,69.21
2018-04-26T07:45:06.472Z,69.02
2018-04-26T07:46:06.714Z,68.16
2018-04-26T07:47:06.719Z,68.06
2018-04-26T07:48:06.711Z,68.63
2018-04-26T07:49:06.712Z,68.44
2018-04-26T07:50:06.708Z,67.87
2018-04-26T07:51:06.713Z,68.57
2018-04-26T07:52:06.708Z,67.24
2018-04-26T07:53:06.809Z,66.53
2018-04-26T07:54:06.450Z,67.4
2018-04-26T07:55:06.702Z,67.01
2018-04-26T07:56:06.709Z,67.77
2018-04-26T07:57:06.450Z,67.49
2018-04-26T07:58:06.694Z,67.97
2018-04-26T07:59:06.698Z,68.35
2018-04-26T08:00:06.711Z,68.63
2018-04-26T08:01:06.703Z,69.4
2018-04-26T08:02:06.692Z,68.35
2018-04-26T08:03:06.691Z,68.35
2018-04-26T08:04:06.438Z,67.77
2018-04-26T08:05:06.689Z,67.97
2018-04-26T08:06:06.686Z,68.35
2018-04-26T08:07:06.689Z,68.82
2018-04-26T08:08:06.433Z,69.02
2018-04-26T08:09:07.103Z,68.54
2018-04-26T08:10:06.717Z,69.11
2018-04-26T08:11:06.703Z,69.4
2018-04-26T08:12:06.685Z,69.31
2018-04-26T08:13:06.426Z,69.02
2018-04-26T08:14:07.227Z,69.49
2018-04-26T08:15:06.423Z,69.93
2018-04-26T08:16:06.426Z,69.74
2018-04-26T08:17:06.668Z,70.22
2018-04-26T08:18:06.663Z,70.7
2018-04-26T08:19:06.421Z,70.79
2018-04-26T08:20:06.663Z,70.42
2018-04-26T08:21:06.661Z,70.79
2018-04-26T08:22:06.660Z,70.42
2018-04-26T08:23:06.658Z,70.83
2018-04-26T08:24:06.656Z,70.45
2018-04-26T08:25:06.795Z,69.87
2018-04-26T08:26:06.653Z,69.11
2018-04-26T08:27:06.653Z,68.29
2018-04-26T08:28:06.654Z,68.96
2018-04-26T08:29:06.649Z,68.35
2018-04-26T08:30:06.647Z,69.11
2018-04-26T08:31:06.661Z,68.19
2018-04-26T08:32:06.654Z,68.44
2018-04-26T08:33:06.396Z,67.97
2018-04-26T08:34:06.651Z,68.35
2018-04-26T08:35:06.656Z,69.21
2018-04-26T08:36:06.648Z,68.06
2018-04-26T08:37:06.652Z,68.44
2018-04-26T08:38:06.646Z,67.87
2018-04-26T08:39:06.648Z,68.44
2018-04-26T08:40:06.639Z,68.19
2018-04-26T08:41:06.639Z,68.19
2018-04-26T08:42:06.651Z,68.19
2018-04-26T08:43:06.640Z,67.91
2018-04-26T08:44:06.640Z,67.62
2018-04-26T08:45:07.730Z,67.24
2018-04-26T08:46:06.636Z,67.33
2018-04-26T08:47:06.380Z,67.71
2018-04-26T08:48:06.379Z,66.89
2018-04-26T08:49:06.636Z,66.31
2018-04-26T08:50:06.677Z,66.41
2018-04-26T08:51:06.379Z,65.93
2018-04-26T08:52:06.638Z,65.26
2018-04-26T08:53:06.639Z,65.17
2018-04-26T08:54:06.378Z,64.59
2018-04-26T08:55:06.379Z,64.98
2018-04-26T08:56:06.641Z,65.93
2018-04-26T08:57:06.645Z,65.17
2018-04-26T08:58:06.646Z,66.13
2018-04-26T08:59:06.628Z,66.13
2018-04-26T09:00:06.640Z,66.13
2018-04-26T09:01:06.621Z,64.98
2018-04-26T09:02:06.620Z,65.36
2018-04-26T09:03:06.639Z,65.64
2018-04-26T09:04:06.368Z,65.74
2018-04-26T09:05:06.376Z,66
2018-04-26T09:06:06.617Z,66.85
2018-04-26T09:07:06.622Z,67.55
2018-04-26T09:08:06.621Z,67.46
2018-04-26T09:09:06.617Z,66.89
2018-04-26T09:10:06.615Z,67.08
2018-04-26T09:11:06.382Z,65.64
2018-04-26T09:12:06.621Z,65.64
2018-04-26T09:13:06.620Z,66.5
2018-04-26T09:14:06.623Z,67.55
2018-04-26T09:15:06.661Z,65.74
2018-04-26T09:16:06.370Z,65.77
2018-04-26T09:17:06.620Z,65.77
2018-04-26T09:18:06.623Z,66.16
2018-04-26T09:19:06.627Z,65.39
2018-04-26T09:20:06.631Z,62.17
2018-04-26T09:21:06.621Z,61.88
2018-04-26T09:22:06.745Z,62.55
2018-04-26T09:23:06.619Z,63.7
2018-04-26T09:24:06.620Z,63.23
2018-04-26T09:25:06.361Z,61.82
2018-04-26T09:26:06.618Z,60.96
2018-04-26T09:27:06.618Z,60.77
2018-04-26T09:28:06.388Z,60
2018-04-26T09:29:06.637Z,58.86
2018-04-26T09:30:06.754Z,58.37
2018-04-26T09:31:06.661Z,58.66
2018-04-26T09:32:06.691Z,59.14
2018-04-26T09:33:06.616Z,57.9
2018-04-26T09:34:06.621Z,57.61
2018-04-26T09:35:06.622Z,57.8
2018-04-26T09:36:06.370Z,57.9
2018-04-26T09:37:06.652Z,57.8
2018-04-26T09:38:06.617Z,58.28
2018-04-26T09:39:06.378Z,57.51
2018-04-26T09:40:06.621Z,56.87
2018-04-26T09:41:06.628Z,56.81
2018-04-26T09:42:06.664Z,55.36
2018-04-26T09:43:06.623Z,53
2018-04-26T09:44:06.373Z,52.62
2018-04-26T09:45:06.626Z,52.3
2018-04-26T09:46:06.977Z,50.87
2018-04-26T09:47:06.376Z,50.67
2018-04-26T09:48:06.628Z,51.79
2018-04-26T09:49:06.638Z,52.28
2018-04-26T09:50:06.636Z,52.56
2018-04-26T09:51:06.627Z,53.71
2018-04-26T09:52:06.627Z,53.42
2018-04-26T09:53:06.638Z,53.04
2018-04-26T09:54:06.633Z,53.14
2018-04-26T09:55:06.654Z,52.01
2018-04-26T09:56:06.385Z,52.11
2018-04-26T09:57:06.387Z,52.09
2018-04-26T09:58:06.388Z,51.79
2018-04-26T09:59:06.387Z,51.99
2018-04-26T10:00:06.418Z,52.66
2018-04-26T10:01:06.395Z,52.47
2018-04-26T10:02:06.389Z,52.85
2018-04-26T10:03:06.393Z,52.75
2018-04-26T10:04:06.636Z,51.61
2018-04-26T10:05:06.638Z,50.84
2018-04-26T10:06:06.683Z,52.09
2018-04-26T10:07:06.644Z,52.95
2018-04-26T10:08:06.398Z,53.52
2018-04-26T10:09:06.396Z,53.42
2018-04-26T10:10:06.642Z,52.28
2018-04-26T10:11:06.401Z,52.37
2018-04-26T10:12:06.395Z,50.56
2018-04-26T10:13:06.660Z,51.61
2018-04-26T10:14:06.397Z,50.2
2018-04-26T10:15:06.805Z,49.24
2018-04-26T10:16:06.396Z,48.09
2018-04-26T10:17:06.470Z,48.18
2018-04-26T10:18:06.424Z,46.17
2018-04-26T10:19:06.404Z,46.46
2018-04-26T10:20:06.691Z,47.42
2018-04-26T10:21:06.756Z,48.78
2018-04-26T10:22:06.662Z,45.04
2018-04-26T10:53:05.079Z,38.93
2018-04-26T10:54:04.326Z,38.45
2018-04-26T10:55:04.674Z,37.78
2018-04-26T10:56:04.317Z,38.16
2018-04-26T10:57:04.318Z,38.14
2018-04-26T10:58:04.967Z,39.39
2018-04-26T10:59:04.573Z,40.64
2018-04-26T11:00:04.391Z,40.83
2018-04-26T11:01:04.554Z,44.18
2018-04-26T11:02:04.305Z,46.65
2018-04-26T11:03:04.557Z,47.8
2018-04-26T11:04:04.305Z,48.85
2018-04-26T11:05:04.550Z,49.33
2018-04-26T11:06:04.566Z,49.6
2018-04-26T11:07:04.561Z,50.36
2018-04-26T11:08:04.560Z,50.07
2018-04-26T11:09:04.306Z,50.56
2018-04-26T11:10:04.553Z,50.81
2018-04-26T11:11:04.561Z,50.81
2018-04-26T11:12:04.306Z,51.68
2018-04-26T11:13:04.553Z,51.01
2018-04-26T11:14:04.300Z,51.39
2018-04-26T11:15:04.556Z,51.97
2018-04-26T11:16:04.555Z,51.75
2018-04-26T11:17:04.557Z,50.7
2018-04-26T11:18:04.641Z,50.34
2018-04-26T11:19:04.552Z,50.24
2018-04-26T11:20:04.553Z,49.95
2018-04-26T11:21:04.552Z,49.4
2018-04-26T11:22:04.301Z,48.73
2018-04-26T11:23:04.550Z,46.75
2018-04-26T11:24:04.556Z,44.93
2018-04-26T11:25:04.549Z,44.06
2018-04-26T11:26:04.303Z,44.93
2018-04-26T11:27:04.554Z,43.77
2018-04-26T11:28:04.305Z,43.01
2018-04-26T11:29:04.568Z,43.1
2018-04-26T11:30:04.309Z,43.2
2018-04-26T11:31:04.685Z,42.53
2018-04-26T11:32:04.554Z,42.34
2018-04-26T11:33:04.556Z,41.77
2018-04-26T11:34:04.556Z,42.53
2018-04-26T11:35:04.555Z,42.53
2018-04-26T11:36:04.604Z,42.65
2018-04-26T11:37:04.562Z,42.74
2018-04-26T11:38:04.312Z,42.74
2018-04-26T11:39:04.556Z,41.13
2018-04-26T11:40:04.386Z,41.13
2018-04-26T11:41:04.559Z,40.66
2018-04-26T11:42:04.562Z,40.47
2018-04-26T11:43:04.599Z,39.7
2018-04-26T11:44:04.323Z,39.98
2018-04-26T11:45:04.564Z,40.66
2018-04-26T11:46:04.313Z,40.37
2018-04-26T11:47:04.566Z,38.56
2018-04-26T11:48:04.568Z,37.89
2018-04-26T11:49:04.570Z,37.03
2018-04-26T11:50:04.573Z,36.28
2018-04-26T11:51:04.568Z,35.13
2018-04-26T11:52:04.573Z,34.84
2018-04-26T11:53:04.579Z,34.27
2018-04-26T11:54:04.582Z,34.06
2018-04-26T11:55:04.574Z,33.69
2018-04-26T11:56:04.579Z,34.34
2018-04-26T11:57:04.330Z,35.51
2018-04-26T11:58:04.596Z,36.07
2018-04-26T11:59:04.331Z,36.26
2018-04-26T12:00:04.337Z,37.13
2018-04-26T12:01:04.583Z,37.13
2018-04-26T12:02:04.591Z,37.22
2018-04-26T12:03:04.607Z,37.03
2018-04-26T12:04:04.593Z,37.24
2018-04-26T12:05:04.609Z,38.1
2018-04-26T12:06:04.593Z,36.28
2018-04-26T12:07:04.348Z,36.09
2018-04-26T12:08:04.664Z,36.18
2018-04-26T12:09:04.598Z,36.28
2018-04-26T12:10:04.601Z,36.47
2018-04-26T12:11:04.604Z,36.09
2018-04-26T12:12:04.604Z,35.89
2018-04-26T12:13:04.610Z,36.28
2018-04-26T12:14:04.362Z,36.55
2018-04-26T12:15:04.609Z,35.97
2018-04-26T12:16:04.618Z,35.59
2018-04-26T12:17:04.611Z,35.3
2018-04-26T12:18:04.366Z,35.38
2018-04-26T12:19:04.370Z,36.15
2018-04-26T12:20:04.617Z,36.9
2018-04-26T12:21:04.618Z,37.01
2018-04-26T12:22:04.622Z,36.82
2018-04-26T12:23:04.624Z,36.72
2018-04-26T12:24:04.721Z,36.91
2018-04-26T12:25:04.629Z,36.8
2018-04-26T12:26:04.626Z,38.24
2018-04-26T12:27:04.455Z,38.14
2018-04-26T12:28:04.383Z,38.22
2018-04-26T12:29:04.782Z,37.45
2018-04-26T12:30:04.387Z,37.55
2018-04-26T12:31:04.385Z,37.45
2018-04-26T12:32:04.636Z,37.65
2018-04-26T12:33:04.636Z,37.93
2018-04-26T12:34:05.739Z,38.12
2018-04-26T12:35:04.669Z,36.99
2018-04-26T12:36:04.396Z,36.99
2018-04-26T12:37:04.637Z,35.94
2018-04-26T12:38:04.638Z,35.65
2018-04-26T12:39:05.407Z,34.71
2018-04-26T12:40:04.697Z,34.33
2018-04-26T12:41:04.653Z,34.34
2018-04-26T12:42:04.847Z,34.42
2018-04-26T12:43:04.649Z,33.19
2018-04-26T12:44:04.647Z,33.27
2018-04-26T12:45:04.651Z,33.65
2018-04-26T12:46:04.401Z,33.67
2018-04-26T12:47:04.650Z,33.58
2018-04-26T12:48:04.649Z,32.71
2018-04-26T12:49:04.648Z,32.71
2018-04-26T12:50:04.660Z,32.52
2018-04-26T12:51:04.655Z,31.1
2018-04-26T12:52:04.406Z,31.48
2018-04-26T12:53:04.660Z,30.99
2018-04-26T12:54:04.659Z,30.99
2018-04-26T12:55:04.671Z,32.03
2018-04-26T12:56:04.421Z,32.7
2018-04-26T12:57:04.670Z,32.89
2018-04-26T12:58:04.841Z,33.37
2018-04-26T12:59:04.671Z,33.47
2018-04-26T13:00:04.664Z,33.47
2018-04-26T13:01:04.687Z,33.37
2018-04-26T13:02:04.678Z,32.79
2018-04-26T13:03:04.682Z,33.83
2018-04-26T13:04:04.670Z,33.54
2018-04-26T13:05:04.842Z,33.35
2018-04-26T13:06:04.702Z,33.64
2018-04-26T13:07:04.428Z,34.12
2018-04-26T13:08:04.499Z,33.73
2018-04-26T13:09:04.430Z,33.54
2018-04-26T13:10:04.681Z,33.06
2018-04-26T13:11:04.677Z,32.59
2018-04-26T13:12:04.552Z,32.68
2018-04-26T13:13:04.678Z,33.45
2018-04-26T13:14:04.682Z,34.12
2018-04-26T13:15:04.677Z,34.02
2018-04-26T13:16:04.681Z,34.02
2018-04-26T13:17:04.700Z,34.59
2018-04-26T13:18:04.687Z,34.98
2018-04-26T13:19:04.691Z,35.36
2018-04-26T13:20:04.692Z,35.55
2018-04-26T13:21:04.816Z,35.55
2018-04-26T13:22:04.693Z,35.17
2018-04-26T13:23:04.688Z,35.08
2018-04-26T13:24:04.687Z,35.17
2018-04-26T13:25:04.688Z,34.59
2018-04-26T13:26:04.445Z,35.08
2018-04-26T13:27:04.458Z,34.79
2018-04-26T13:28:04.443Z,34.5
2018-04-26T13:29:04.779Z,33.84
2018-04-26T13:30:04.697Z,32.79
2018-04-26T13:31:04.702Z,33.37
2018-04-26T13:32:04.718Z,33.75
2018-04-26T13:33:04.450Z,33.47
2018-04-26T13:34:04.695Z,32.89
2018-04-26T13:35:04.696Z,32.7
2018-04-26T13:36:04.704Z,32.03
2018-04-26T13:37:04.449Z,32.59
2018-04-26T13:38:04.701Z,32.78
2018-04-26T13:39:04.698Z,33.06
2018-04-26T13:40:04.451Z,32.7